Weather at Guardiamarina Zañartu Airport

Public forecast

Using degrees Celsius for public forecast. Weather courtesy of forecast.io.

Current aviation weather report (METAR) for Guardiamarina Zañartu Airport

Report is more than 6 hours old.

Retrieved 2020/09/22 20:00 UTC (15 hours ago):

SCGZ 222000Z 28016KT 9999 SCT042 08/01 Q0996

Closest aviation forecast (TAF) to Guardiamarina Zañartu Airport

Closest forecast is Malvinas Argentinas Airport, 23.7 nm (43.9 km) WNW. Retrieved 2020/09/23 06:00 UTC (5 hours ago):

TAF SAWH 230500Z 2306/2406 VRB05KT 9999 -RA SCT020 BKN030 OVC050 TX10/2318Z TN02/2311Z BECMG 2316/2318 34025G40KT BKN030 BKN090 PROB40 TEMPO 2320/2324 34030G50KT 5000 RA BKN025 OVC050 BECMG 2401/2403 23020G35KT 5000 SHRA BKN020 OVC050 BECMG 2404/2406 30015KT 9999 NSW SCT030 SCT090